createdAt,value
2019-05-05T00:02:04.887Z,22.30
2019-05-05T00:04:45.520Z,21.73
2019-05-05T00:07:15.824Z,21.27
2019-05-05T00:09:44.995Z,17.32
2019-05-05T00:12:21.247Z,16.95
2019-05-05T00:14:51.653Z,19.92
2019-05-05T00:17:21.723Z,21.48
2019-05-05T00:19:50.254Z,16.55
2019-05-05T00:22:19.103Z,20.25
2019-05-05T00:24:47.618Z,25.82
2019-05-05T00:27:16.075Z,24.50
2019-05-05T00:29:45.347Z,20.32
2019-05-05T00:32:15.264Z,24.80
2019-05-05T00:34:44.603Z,15.68
2019-05-05T00:37:15.231Z,14.98
2019-05-05T00:39:45.169Z,15.58
2019-05-05T00:42:15.407Z,17.25
2019-05-05T00:44:44.788Z,15.63
2019-05-05T00:47:25.067Z,12.78
2019-05-05T00:49:56.151Z,16.15
2019-05-05T00:52:24.583Z,18.67
2019-05-05T00:54:55.446Z,27.55
2019-05-05T00:57:24.318Z,22.30
2019-05-05T00:59:54.394Z,17.35
2019-05-05T01:02:27.606Z,20.80
2019-05-05T01:05:00.680Z,22.82
2019-05-05T01:07:29.182Z,22.15
2019-05-05T01:09:57.777Z,17.85
2019-05-05T01:12:26.799Z,17.45
2019-05-05T01:14:55.401Z,19.48
2019-05-05T01:17:25.330Z,17.75
2019-05-05T01:20:03.412Z,16.55
2019-05-05T01:22:25.086Z,17.95
2019-05-05T01:24:55.457Z,19.52
2019-05-05T01:27:25.465Z,21.42
2019-05-05T01:29:54.674Z,18.73
2019-05-05T01:32:28.203Z,19.77
2019-05-05T01:34:57.007Z,20.48
2019-05-05T01:37:29.881Z,20.70
2019-05-05T01:42:27.972Z,24.30
2019-05-05T01:44:56.475Z,24.15
2019-05-05T01:47:25.461Z,20.25
2019-05-05T01:49:54.635Z,17.50
2019-05-05T01:52:25.262Z,22.30
2019-05-05T01:54:54.808Z,18.67
2019-05-05T01:57:25.205Z,23.92
2019-05-05T01:59:55.210Z,22.65
2019-05-05T02:02:25.104Z,21.00
2019-05-05T02:04:55.347Z,24.25
2019-05-05T02:07:25.031Z,22.62
2019-05-05T02:09:55.345Z,23.65
2019-05-05T02:12:24.652Z,21.52
2019-05-05T02:14:55.111Z,20.90
2019-05-05T02:17:24.721Z,26.00
2019-05-05T02:19:54.941Z,23.27
2019-05-05T02:22:25.228Z,23.45
2019-05-05T02:24:55.089Z,25.05
2019-05-05T02:27:25.168Z,23.22
2019-05-05T02:29:55.709Z,20.48
2019-05-05T02:32:26.024Z,20.37
2019-05-05T02:34:59.288Z,21.90
2019-05-05T02:37:27.856Z,30.10
2019-05-05T02:40:02.471Z,24.95
2019-05-05T02:42:27.608Z,30.57
2019-05-05T02:44:59.235Z,22.58
2019-05-05T02:47:38.325Z,22.62
2019-05-05T02:50:07.869Z,18.75
2019-05-05T02:52:39.310Z,26.10
2019-05-05T02:55:09.151Z,26.75
2019-05-05T02:57:37.725Z,24.20
2019-05-05T03:00:20.986Z,21.95
2019-05-05T03:02:49.479Z,23.38
2019-05-05T03:05:18.047Z,23.85
2019-05-05T03:07:47.054Z,26.27
2019-05-05T03:10:15.727Z,29.90
2019-05-05T03:12:45.087Z,26.33
2019-05-05T03:15:28.727Z,32.65
2019-05-05T03:17:57.312Z,31.07
2019-05-05T03:20:25.891Z,30.68
2019-05-05T03:22:54.407Z,28.27
2019-05-05T03:25:24.162Z,28.00
2019-05-05T03:27:53.764Z,24.18
2019-05-05T03:30:25.784Z,23.73
2019-05-05T03:32:55.697Z,26.10
2019-05-05T03:35:24.087Z,27.40
2019-05-05T03:37:54.478Z,26.42
2019-05-05T03:40:24.848Z,25.43
2019-05-05T03:42:57.918Z,21.33
2019-05-05T03:45:37.693Z,25.02
2019-05-05T03:48:06.364Z,23.57
2019-05-05T03:50:35.549Z,19.73
2019-05-05T03:53:04.917Z,23.27
2019-05-05T03:55:34.619Z,20.68
2019-05-05T03:58:04.090Z,22.00
2019-05-05T04:00:54.910Z,24.85
2019-05-05T04:03:23.745Z,23.42
2019-05-05T04:05:56.755Z,22.48
2019-05-05T04:10:54.670Z,18.57
2019-05-05T04:13:24.255Z,21.90
2019-05-05T04:15:54.486Z,22.02
2019-05-05T04:18:24.564Z,21.80
2019-05-05T04:20:53.500Z,22.15
2019-05-05T04:23:21.986Z,23.30
2019-05-05T04:25:50.555Z,27.98
2019-05-05T04:28:18.996Z,22.32
2019-05-05T04:30:47.449Z,23.18
2019-05-05T04:33:15.878Z,24.10
2019-05-05T04:35:44.551Z,24.70
2019-05-05T04:38:13.870Z,17.85
2019-05-05T04:40:43.532Z,20.27
2019-05-05T04:43:14.269Z,19.50
2019-05-05T04:45:43.587Z,36.75
2019-05-05T04:48:13.921Z,29.10
2019-05-05T04:50:47.352Z,20.48
2019-05-05T04:53:24.114Z,21.33
2019-05-05T04:55:53.618Z,18.73
2019-05-05T04:58:24.150Z,18.98
2019-05-05T05:00:54.548Z,20.50
2019-05-05T05:03:39.806Z,16.90
2019-05-05T05:06:15.882Z,15.38
2019-05-05T05:08:44.537Z,19.07
2019-05-05T05:11:14.163Z,16.12
2019-05-05T05:13:44.021Z,17.73
2019-05-05T05:16:13.887Z,16.85
2019-05-05T05:18:44.570Z,18.35
2019-05-05T05:21:14.498Z,19.30
2019-05-05T05:23:44.360Z,22.25
2019-05-05T05:26:13.936Z,20.45
2019-05-05T05:28:44.603Z,24.30
2019-05-05T05:31:14.060Z,29.40
2019-05-05T05:33:43.679Z,18.82
2019-05-05T05:36:14.275Z,18.12
2019-05-05T05:38:44.219Z,14.68
2019-05-05T05:41:14.223Z,16.45
2019-05-05T05:43:56.629Z,21.17
2019-05-05T05:46:43.808Z,19.52
2019-05-05T05:49:19.259Z,20.15
2019-05-05T05:51:47.703Z,19.32
2019-05-05T05:54:19.045Z,15.65
2019-05-05T05:56:47.823Z,16.23
2019-05-05T05:59:16.715Z,14.58
2019-05-05T06:01:45.219Z,12.70
2019-05-05T06:04:14.510Z,18.07
2019-05-05T06:06:43.891Z,17.15
2019-05-05T06:09:14.669Z,18.92
2019-05-05T06:11:43.675Z,23.77
2019-05-05T06:14:14.432Z,15.65
2019-05-05T06:16:44.492Z,25.70
2019-05-05T06:19:14.062Z,19.70
2019-05-05T06:21:43.991Z,16.55
2019-05-05T06:24:13.631Z,16.45
2019-05-05T06:26:44.389Z,14.18
2019-05-05T06:29:14.432Z,14.28
2019-05-05T06:31:44.545Z,16.67
2019-05-05T06:34:13.974Z,17.98
2019-05-05T06:36:44.484Z,14.65
2019-05-05T06:39:13.640Z,16.02
2019-05-05T06:41:49.774Z,11.65
2019-05-05T06:44:24.713Z,14.73
2019-05-05T06:46:57.634Z,13.60
2019-05-05T06:49:26.165Z,17.90
2019-05-05T06:51:54.826Z,12.60
2019-05-05T06:54:24.232Z,11.83
2019-05-05T06:56:53.861Z,13.28
2019-05-05T06:59:24.383Z,51.30
2019-05-05T07:01:53.612Z,24.25
2019-05-05T07:04:24.413Z,18.15
2019-05-05T07:06:56.704Z,12.25
2019-05-05T07:09:24.483Z,18.10
2019-05-05T07:11:54.101Z,20.68
2019-05-05T07:14:23.640Z,19.62
2019-05-05T07:16:54.325Z,27.45
2019-05-05T07:19:23.953Z,18.40
2019-05-05T07:21:53.828Z,9.23
2019-05-05T07:24:23.890Z,19.23
2019-05-05T07:26:54.105Z,13.95
2019-05-05T07:29:23.953Z,14.63
2019-05-05T07:31:54.526Z,12.23
2019-05-05T07:34:24.277Z,17.85
2019-05-05T07:36:54.843Z,11.93
2019-05-05T07:39:23.811Z,28.17
2019-05-05T07:41:54.193Z,21.50
2019-05-05T07:44:29.072Z,10.60
2019-05-05T07:46:54.337Z,19.20
2019-05-05T07:49:24.885Z,18.05
2019-05-05T07:51:54.758Z,10.43
2019-05-05T07:54:23.806Z,10.85
2019-05-05T07:56:53.991Z,10.28
2019-05-05T07:59:23.834Z,13.53
2019-05-05T08:01:54.605Z,17.37
2019-05-05T08:04:24.270Z,27.55
2019-05-05T08:06:53.849Z,9.15
2019-05-05T08:09:24.687Z,29.48
2019-05-05T08:11:54.275Z,11.78
2019-05-05T08:14:24.569Z,23.92
2019-05-05T08:16:54.856Z,33.23
2019-05-05T08:19:37.047Z,21.65
2019-05-05T08:22:05.687Z,19.77
2019-05-05T08:24:41.569Z,14.03
2019-05-05T08:27:14.336Z,10.28
2019-05-05T08:29:43.954Z,28.17
2019-05-05T08:32:26.321Z,22.50
2019-05-05T08:35:00.366Z,26.80
2019-05-05T08:37:25.363Z,13.93
2019-05-05T08:39:54.074Z,7.12
2019-05-05T08:42:24.669Z,9.23
2019-05-05T08:44:53.861Z,15.95
2019-05-05T08:47:24.454Z,13.25
2019-05-05T08:49:58.671Z,10.65
2019-05-05T08:52:27.839Z,8.73
2019-05-05T08:54:56.276Z,19.95
2019-05-05T08:57:24.707Z,12.25
2019-05-05T08:59:54.597Z,14.40
2019-05-05T09:02:23.904Z,41.13
2019-05-05T09:04:53.788Z,23.40
2019-05-05T09:07:24.170Z,14.03
2019-05-05T09:09:54.491Z,25.92
2019-05-05T09:12:24.295Z,10.38
2019-05-05T09:14:53.871Z,21.23
2019-05-05T09:17:24.380Z,17.87
2019-05-05T09:19:53.730Z,32.00
2019-05-05T09:22:24.405Z,12.10
2019-05-05T09:25:04.320Z,14.20
2019-05-05T09:27:40.116Z,20.55
2019-05-05T09:30:10.918Z,19.80
2019-05-05T09:32:40.916Z,21.60
2019-05-05T09:35:09.792Z,14.83
2019-05-05T09:40:09.682Z,11.93
2019-05-05T09:42:38.495Z,8.23
2019-05-05T09:45:07.933Z,10.72
2019-05-05T09:47:36.459Z,18.12
2019-05-05T09:50:06.703Z,12.88
2019-05-05T09:52:35.128Z,7.65
2019-05-05T09:55:06.635Z,6.55
2019-05-05T09:57:36.083Z,10.38
2019-05-05T10:00:08.196Z,31.07
2019-05-05T10:06:17.703Z,30.00
2019-05-05T10:08:46.139Z,14.40
2019-05-05T10:11:16.450Z,20.95
2019-05-05T10:13:45.154Z,25.62
2019-05-05T10:16:14.416Z,20.05
2019-05-05T10:18:44.678Z,31.65
2019-05-05T10:21:13.864Z,22.87
2019-05-05T10:23:44.127Z,16.37
2019-05-05T10:26:14.948Z,20.02
2019-05-05T10:28:44.460Z,25.70
2019-05-05T10:31:13.823Z,10.68
2019-05-05T10:33:46.850Z,18.02
2019-05-05T10:36:15.272Z,21.48
2019-05-05T10:38:45.404Z,31.07
2019-05-05T10:41:13.954Z,12.00
2019-05-05T10:43:43.697Z,20.60
2019-05-05T10:46:14.229Z,28.47
2019-05-05T10:48:44.456Z,9.60
2019-05-05T10:51:12.791Z,18.65
2019-05-05T10:53:41.213Z,9.98
2019-05-05T10:56:09.742Z,20.70
2019-05-05T10:58:38.512Z,28.07
2019-05-05T11:01:07.025Z,9.18
2019-05-05T11:03:35.614Z,10.23
2019-05-05T11:06:04.643Z,7.97
2019-05-05T11:08:34.770Z,5.17
2019-05-05T11:11:04.212Z,12.43
2019-05-05T11:13:34.478Z,13.40
2019-05-05T11:16:03.987Z,5.22
2019-05-05T11:18:34.609Z,12.50
2019-05-05T11:21:04.058Z,8.45
2019-05-05T11:23:34.644Z,5.62
2019-05-05T11:26:03.410Z,10.88
2019-05-05T11:28:33.993Z,6.70
2019-05-05T11:31:04.461Z,6.45
2019-05-05T11:33:34.751Z,5.45
2019-05-05T11:36:07.825Z,6.67
2019-05-05T11:41:05.000Z,6.75
2019-05-05T11:43:33.911Z,8.43
2019-05-05T11:46:02.471Z,5.92
2019-05-05T11:48:34.811Z,7.58
2019-05-05T11:51:04.547Z,6.30
2019-05-05T11:53:33.961Z,11.33
2019-05-05T11:56:04.204Z,14.65
2019-05-05T11:58:34.103Z,10.05
2019-05-05T12:01:03.721Z,10.65
2019-05-05T12:03:33.957Z,7.42
2019-05-05T12:06:03.926Z,9.20
2019-05-05T12:08:34.491Z,8.85
2019-05-05T12:11:04.827Z,6.03
2019-05-05T12:13:33.947Z,9.58
2019-05-05T12:16:04.620Z,9.38
2019-05-05T12:18:34.269Z,9.75
2019-05-05T12:21:05.155Z,8.33
2019-05-05T12:23:34.148Z,13.00
2019-05-05T12:26:04.791Z,6.45
2019-05-05T12:28:37.706Z,6.20
2019-05-05T12:31:14.117Z,5.50
2019-05-05T12:33:44.190Z,10.30
2019-05-05T12:36:14.925Z,8.10
2019-05-05T12:38:43.981Z,7.85
2019-05-05T12:41:14.761Z,5.60
2019-05-05T12:43:44.709Z,7.70
2019-05-05T12:46:14.845Z,5.17
2019-05-05T12:48:44.960Z,6.35
2019-05-05T12:51:14.693Z,6.05
2019-05-05T12:53:43.355Z,10.60
2019-05-05T12:56:11.876Z,12.33
2019-05-05T12:58:41.223Z,10.85
2019-05-05T13:01:14.493Z,12.80
2019-05-05T13:03:43.795Z,9.48
2019-05-05T13:06:14.588Z,10.25
2019-05-05T13:08:44.521Z,5.42
2019-05-05T13:11:13.761Z,7.83
2019-05-05T13:13:43.975Z,12.25
2019-05-05T13:16:13.626Z,12.23
2019-05-05T13:18:42.547Z,7.70
2019-05-05T13:21:30.219Z,7.50
2019-05-05T13:24:00.311Z,15.32
2019-05-05T13:26:46.540Z,20.30
2019-05-05T13:29:15.302Z,9.78
2019-05-05T13:31:45.341Z,7.40
2019-05-05T13:34:13.827Z,15.23
2019-05-05T13:36:44.172Z,11.30
2019-05-05T13:39:14.390Z,12.05
2019-05-05T13:41:44.835Z,10.18
2019-05-05T13:44:19.127Z,18.07
2019-05-05T13:46:47.840Z,11.68
2019-05-05T13:49:17.913Z,17.95
2019-05-05T13:51:46.413Z,22.73
2019-05-05T13:54:16.198Z,10.88
2019-05-05T13:56:44.747Z,8.93
2019-05-05T13:59:14.084Z,12.75
2019-05-05T14:01:44.760Z,13.20
2019-05-05T14:04:13.122Z,14.13
2019-05-05T14:06:41.653Z,14.20
2019-05-05T14:09:10.811Z,23.52
2019-05-05T14:11:39.434Z,11.90
2019-05-05T14:14:07.851Z,10.13
2019-05-05T14:16:36.944Z,11.45
2019-05-05T14:19:05.527Z,10.90
2019-05-05T14:21:34.078Z,16.97
2019-05-05T14:24:04.322Z,15.72
2019-05-05T14:26:35.198Z,11.00
2019-05-05T14:29:04.283Z,9.28
2019-05-05T14:31:35.751Z,9.30
2019-05-05T14:34:06.727Z,13.45
2019-05-05T14:36:44.151Z,5.53
2019-05-05T14:39:14.972Z,11.18
2019-05-05T14:41:44.573Z,9.78
2019-05-05T14:44:13.496Z,7.37
2019-05-05T14:46:42.124Z,13.05
2019-05-05T14:49:10.620Z,14.60
2019-05-05T14:51:40.055Z,17.52
2019-05-05T14:54:10.800Z,25.30
2019-05-05T14:56:39.023Z,33.98
2019-05-05T14:59:09.067Z,42.48
2019-05-05T15:01:37.504Z,62.13
2019-05-05T15:04:06.268Z,46.73
2019-05-05T15:06:39.153Z,23.62
2019-05-05T15:09:09.867Z,8.38
2019-05-05T15:11:49.367Z,7.58
2019-05-05T15:14:17.868Z,12.53
2019-05-05T15:16:46.297Z,7.12
2019-05-05T15:19:14.834Z,5.95
2019-05-05T15:21:44.317Z,6.67
2019-05-05T15:24:13.821Z,6.95
2019-05-05T15:26:50.626Z,19.20
2019-05-05T15:29:12.903Z,13.88
2019-05-05T15:31:43.544Z,17.45
2019-05-05T15:34:12.258Z,40.83
2019-05-05T15:36:41.103Z,37.58
2019-05-05T15:39:09.711Z,13.38
2019-05-05T15:41:38.247Z,34.53
2019-05-05T15:44:07.860Z,21.10
2019-05-05T15:46:36.038Z,36.05
2019-05-05T15:49:05.457Z,10.90
2019-05-05T15:51:34.351Z,10.20
2019-05-05T15:54:03.844Z,18.05
2019-05-05T15:56:34.060Z,3.72
2019-05-05T15:59:02.840Z,3.27
2019-05-05T16:01:31.375Z,32.42
2019-05-05T16:03:59.872Z,23.40
2019-05-05T16:06:28.584Z,37.45
2019-05-05T16:08:57.044Z,22.75
2019-05-05T16:11:26.980Z,14.10
2019-05-05T16:13:55.654Z,18.95
2019-05-05T16:16:30.202Z,12.37
2019-05-05T16:19:05.633Z,8.10
2019-05-05T16:21:38.707Z,12.68
2019-05-05T16:24:08.924Z,13.72
2019-05-05T16:26:37.500Z,19.42
2019-05-05T16:29:06.333Z,14.90
2019-05-05T16:31:34.830Z,10.35
2019-05-05T16:34:03.853Z,14.10
2019-05-05T16:36:34.036Z,15.13
2019-05-05T16:39:02.779Z,17.15
2019-05-05T16:41:31.506Z,21.90
2019-05-05T16:44:00.367Z,15.18
2019-05-05T16:46:28.820Z,18.48
2019-05-05T16:48:57.373Z,8.50
2019-05-05T16:51:27.525Z,8.48
2019-05-05T16:53:57.713Z,7.25
2019-05-05T16:58:53.907Z,10.10
2019-05-05T17:01:22.663Z,7.80
2019-05-05T17:03:51.511Z,11.43
2019-05-05T17:06:20.480Z,7.72
2019-05-05T17:08:49.328Z,12.82
2019-05-05T17:11:18.199Z,12.18
2019-05-05T17:13:48.556Z,17.10
2019-05-05T17:16:30.611Z,9.08
2019-05-05T17:19:06.893Z,10.93
2019-05-05T17:21:53.642Z,16.67
2019-05-05T17:24:23.985Z,23.55
2019-05-05T17:26:54.890Z,15.27
2019-05-05T17:34:24.468Z,13.20
2019-05-05T17:36:53.597Z,12.95
2019-05-05T17:39:24.003Z,15.25
2019-05-05T17:41:54.304Z,17.20
2019-05-05T17:44:27.353Z,16.02
2019-05-05T17:49:54.128Z,11.80
2019-05-05T17:52:36.536Z,10.70
2019-05-05T17:55:24.280Z,12.37
2019-05-05T17:58:01.534Z,14.83
2019-05-05T18:00:24.358Z,15.03
2019-05-05T18:02:53.580Z,22.37
2019-05-05T18:05:38.910Z,12.05
2019-05-05T18:08:07.405Z,21.05
2019-05-05T18:10:37.488Z,11.05
2019-05-05T18:13:08.116Z,20.60
2019-05-05T18:15:49.492Z,19.15
2019-05-05T18:18:18.364Z,14.38
2019-05-05T18:20:47.121Z,17.67
2019-05-05T18:23:15.636Z,15.70
2019-05-05T18:25:44.234Z,19.27
2019-05-05T18:28:19.481Z,20.17
2019-05-05T18:30:44.392Z,17.73
2019-05-05T18:33:13.679Z,22.85
2019-05-05T18:35:44.268Z,23.50
2019-05-05T18:38:13.762Z,26.33
2019-05-05T18:40:43.431Z,39.65
2019-05-05T18:43:13.802Z,24.07
2019-05-05T18:45:44.185Z,23.10
2019-05-05T18:48:13.961Z,26.02
2019-05-05T18:50:42.851Z,18.48
2019-05-05T18:53:11.299Z,15.20
2019-05-05T18:55:40.104Z,12.05
2019-05-05T18:58:08.567Z,24.18
2019-05-05T19:00:48.283Z,18.05
2019-05-05T19:03:20.720Z,17.87
2019-05-05T19:05:56.921Z,18.87
2019-05-05T19:08:27.003Z,23.38
2019-05-05T19:10:55.513Z,21.45
2019-05-05T19:13:24.558Z,14.10
2019-05-05T19:15:53.900Z,19.80
2019-05-05T19:18:24.320Z,31.73
2019-05-05T19:21:00.411Z,24.27
2019-05-05T19:23:29.186Z,17.73
2019-05-05T19:25:57.691Z,24.05
2019-05-05T19:28:41.039Z,18.87
2019-05-05T19:30:57.667Z,36.08
2019-05-05T19:33:26.167Z,23.02
2019-05-05T19:35:54.705Z,46.00
2019-05-05T19:38:23.696Z,19.55
2019-05-05T19:40:55.993Z,17.77
2019-05-05T19:43:24.447Z,24.57
2019-05-05T19:45:55.088Z,58.73
2019-05-05T19:48:24.469Z,117.90
2019-05-05T19:50:54.696Z,102.27
2019-05-05T19:53:24.500Z,26.13
2019-05-05T19:55:56.743Z,20.32
2019-05-05T19:58:27.931Z,20.62
2019-05-05T20:00:58.436Z,22.32
2019-05-05T20:03:27.048Z,24.20
2019-05-05T20:05:55.681Z,23.22
2019-05-05T20:08:24.233Z,26.60
2019-05-05T20:10:54.178Z,15.80
2019-05-05T20:13:22.561Z,19.87
2019-05-05T20:15:53.757Z,20.55
2019-05-05T20:18:22.335Z,22.65
2019-05-05T20:21:03.126Z,34.48
2019-05-05T20:23:22.008Z,33.67
2019-05-05T20:25:50.776Z,26.60
2019-05-05T20:28:19.221Z,19.62
2019-05-05T20:30:47.737Z,17.90
2019-05-05T20:33:26.460Z,21.42
2019-05-05T20:35:57.896Z,21.42
2019-05-05T20:38:37.472Z,21.37
2019-05-05T20:41:10.493Z,28.27
2019-05-05T20:46:09.376Z,22.67
2019-05-05T20:48:41.013Z,10.68
2019-05-05T20:51:08.167Z,12.15
2019-05-05T20:53:37.863Z,16.45
2019-05-05T20:56:06.443Z,18.40
2019-05-05T20:58:34.938Z,17.23
2019-05-05T21:01:04.530Z,19.92
2019-05-05T21:03:34.722Z,22.87
2019-05-05T21:06:04.446Z,12.33
2019-05-05T21:08:34.755Z,9.95
2019-05-05T21:11:04.370Z,16.20
2019-05-05T21:13:34.143Z,16.40
2019-05-05T21:16:03.011Z,15.08
2019-05-05T21:18:31.565Z,55.12
2019-05-05T21:21:01.916Z,60.90
2019-05-05T21:23:34.117Z,32.45
2019-05-05T21:26:04.446Z,23.17
2019-05-05T21:28:33.730Z,30.12
2019-05-05T21:31:02.183Z,21.37
2019-05-05T21:33:30.780Z,18.92
2019-05-05T21:35:59.329Z,20.10
2019-05-05T21:38:27.772Z,23.12
2019-05-05T21:40:56.208Z,22.55
2019-05-05T21:43:24.991Z,13.83
2019-05-05T21:45:53.835Z,18.35
2019-05-05T21:48:22.425Z,26.12
2019-05-05T21:50:56.965Z,27.52
2019-05-05T21:53:29.926Z,26.40
2019-05-05T21:58:29.388Z,37.15
2019-05-05T22:01:04.475Z,38.08
2019-05-05T22:03:39.357Z,30.92
2019-05-05T22:06:07.940Z,26.17
2019-05-05T22:08:36.364Z,19.52
2019-05-05T22:11:05.419Z,21.85
2019-05-05T22:13:36.196Z,16.90
2019-05-05T22:16:04.286Z,16.57
2019-05-05T22:18:33.069Z,10.23
2019-05-05T22:21:04.454Z,14.78
2019-05-05T22:23:34.010Z,13.75
2019-05-05T22:26:04.232Z,14.43
2019-05-05T22:28:34.022Z,15.53
2019-05-05T22:31:04.751Z,13.60
2019-05-05T22:33:33.995Z,11.08
2019-05-05T22:36:04.373Z,10.10
2019-05-05T22:38:33.924Z,10.90
2019-05-05T22:41:02.659Z,11.03
2019-05-05T22:43:31.328Z,10.78
2019-05-05T22:46:00.116Z,17.48
2019-05-05T22:48:28.654Z,15.05
2019-05-05T22:50:57.096Z,12.47
2019-05-05T22:53:25.528Z,17.23
2019-05-05T22:55:54.127Z,14.05
2019-05-05T22:58:24.008Z,12.05
2019-05-05T23:00:54.687Z,14.60
2019-05-05T23:03:30.320Z,18.85
2019-05-05T23:06:04.331Z,12.70
2019-05-05T23:08:34.894Z,10.30
2019-05-05T23:11:04.062Z,7.92
2019-05-05T23:13:34.163Z,9.90
2019-05-05T23:16:10.441Z,8.90
2019-05-05T23:18:39.676Z,9.40
2019-05-05T23:21:18.567Z,8.90
2019-05-05T23:24:00.303Z,8.33
2019-05-05T23:26:36.035Z,11.73
2019-05-05T23:29:04.971Z,9.63
2019-05-05T23:31:33.943Z,19.02
2019-05-05T23:34:03.976Z,13.83
2019-05-05T23:36:33.943Z,11.88
2019-05-05T23:39:04.414Z,14.18
2019-05-05T23:41:34.866Z,15.45
2019-05-05T23:44:04.522Z,20.50
2019-05-05T23:46:34.832Z,20.57
2019-05-05T23:49:04.269Z,24.23
2019-05-05T23:51:34.668Z,32.73
2019-05-05T23:54:04.271Z,25.40
2019-05-05T23:56:34.992Z,8.23
2019-05-05T23:59:04.268Z,12.68
